LFSD

Dijon-Bourgogne Airport

Airport
ICAO code
LFSD
IATA Code
DIJ
Summary
ICAO Region
EUR
ICAO Territory
Location

, Bourgogne

Serving
Dijon
Elevation
726 ft
Coordinates
47° 16' 8" N , 5° 5' 24" E
Metar
Observation
LFSD 280300Z AUTO 20005KT CAVOK 07/06 Q1014
Station
Dijon
Date/Time
2022-11-28 03:00:00
Wind direction
200°
Wind speed
05 kts
Lowest cloud amount
clouds and visibility OK
Temperature
7°C
Dew point
6°C
Humidity
93%
QNH
1014 hPa
Weather condition
n/a

Runways

Designator Length Width Surface Rops
2/20 1800 36 ASP No/No
18/36 2400 45 ASP No/No

Airport map

Aerial View

SKYbrary Partners:

Safety knowledge contributed by: